sensor_id;sensor_type;location;lat;lon;timestamp;P1;durP1;ratioP1;P2;durP2;ratioP2
56401;SDS011;42299;35.160;26.100;2023-04-30T00:00:33;11.60;;;5.95;;
56401;SDS011;42299;35.160;26.100;2023-04-30T00:01:56;10.10;;;6.18;;
56401;SDS011;42299;35.160;26.100;2023-04-30T00:03:17;9.48;;;5.57;;
56401;SDS011;42299;35.160;26.100;2023-04-30T00:04:39;10.43;;;5.95;;
56401;SDS011;42299;35.160;26.100;2023-04-30T00:06:01;8.88;;;5.50;;
56401;SDS011;42299;35.160;26.100;2023-04-30T00:07:24;9.65;;;5.28;;
56401;SDS011;42299;35.160;26.100;2023-04-30T00:08:47;9.48;;;6.05;;
56401;SDS011;42299;35.160;26.100;2023-04-30T00:10:09;8.88;;;5.72;;
56401;SDS011;42299;35.160;26.100;2023-04-30T00:11:31;10.05;;;5.65;;
56401;SDS011;42299;35.160;26.100;2023-04-30T00:12:53;8.20;;;5.35;;
56401;SDS011;42299;35.160;26.100;2023-04-30T00:14:16;9.18;;;5.75;;
56401;SDS011;42299;35.160;26.100;2023-04-30T00:15:37;8.98;;;5.78;;
56401;SDS011;42299;35.160;26.100;2023-04-30T00:17:00;9.57;;;5.38;;
56401;SDS011;42299;35.160;26.100;2023-04-30T00:18:21;10.73;;;6.25;;
56401;SDS011;42299;35.160;26.100;2023-04-30T00:19:43;14.32;;;5.72;;
56401;SDS011;42299;35.160;26.100;2023-04-30T00:21:05;8.23;;;5.10;;
56401;SDS011;42299;35.160;26.100;2023-04-30T00:22:27;7.70;;;5.07;;
56401;SDS011;42299;35.160;26.100;2023-04-30T00:23:50;7.90;;;5.63;;
56401;SDS011;42299;35.160;26.100;2023-04-30T00:25:12;9.68;;;5.68;;
56401;SDS011;42299;35.160;26.100;2023-04-30T00:26:35;7.50;;;5.50;;
56401;SDS011;42299;35.160;26.100;2023-04-30T00:27:56;8.32;;;5.47;;
56401;SDS011;42299;35.160;26.100;2023-04-30T00:29:18;9.13;;;5.97;;
56401;SDS011;42299;35.160;26.100;2023-04-30T00:30:42;10.70;;;5.63;;
56401;SDS011;42299;35.160;26.100;2023-04-30T00:32:04;10.68;;;6.18;;
56401;SDS011;42299;35.160;26.100;2023-04-30T00:33:25;13.88;;;6.38;;
56401;SDS011;42299;35.160;26.100;2023-04-30T00:34:48;11.57;;;6.70;;
56401;SDS011;42299;35.160;26.100;2023-04-30T00:36:10;9.63;;;5.88;;
56401;SDS011;42299;35.160;26.100;2023-04-30T00:37:32;11.15;;;6.75;;
56401;SDS011;42299;35.160;26.100;2023-04-30T00:38:57;9.60;;;6.07;;
56401;SDS011;42299;35.160;26.100;2023-04-30T00:40:19;10.07;;;6.03;;
56401;SDS011;42299;35.160;26.100;2023-04-30T00:41:42;11.98;;;7.00;;
56401;SDS011;42299;35.160;26.100;2023-04-30T00:43:05;8.90;;;5.75;;
56401;SDS011;42299;35.160;26.100;2023-04-30T00:44:28;10.85;;;6.00;;
56401;SDS011;42299;35.160;26.100;2023-04-30T00:45:50;8.32;;;5.13;;
56401;SDS011;42299;35.160;26.100;2023-04-30T00:47:11;10.43;;;5.90;;
56401;SDS011;42299;35.160;26.100;2023-04-30T00:48:34;8.95;;;5.60;;
56401;SDS011;42299;35.160;26.100;2023-04-30T00:49:56;8.73;;;5.47;;
56401;SDS011;42299;35.160;26.100;2023-04-30T00:51:19;9.70;;;5.47;;
56401;SDS011;42299;35.160;26.100;2023-04-30T00:52:40;7.45;;;4.95;;
56401;SDS011;42299;35.160;26.100;2023-04-30T00:54:04;8.65;;;5.63;;
56401;SDS011;42299;35.160;26.100;2023-04-30T00:55:27;7.90;;;5.13;;
56401;SDS011;42299;35.160;26.100;2023-04-30T00:56:50;8.68;;;5.40;;
56401;SDS011;42299;35.160;26.100;2023-04-30T00:58:12;10.30;;;5.35;;
56401;SDS011;42299;35.160;26.100;2023-04-30T00:59:34;7.35;;;5.38;;
56401;SDS011;42299;35.160;26.100;2023-04-30T01:00:56;7.57;;;5.28;;
56401;SDS011;42299;35.160;26.100;2023-04-30T01:02:19;9.18;;;5.95;;
56401;SDS011;42299;35.160;26.100;2023-04-30T01:03:41;9.10;;;5.50;;
56401;SDS011;42299;35.160;26.100;2023-04-30T01:05:05;9.20;;;6.07;;
56401;SDS011;42299;35.160;26.100;2023-04-30T01:06:27;12.23;;;5.25;;
56401;SDS011;42299;35.160;26.100;2023-04-30T01:07:50;8.82;;;5.55;;
56401;SDS011;42299;35.160;26.100;2023-04-30T01:09:16;9.82;;;5.10;;
56401;SDS011;42299;35.160;26.100;2023-04-30T01:10:40;9.77;;;5.53;;
56401;SDS011;42299;35.160;26.100;2023-04-30T01:12:07;9.23;;;5.45;;
56401;SDS011;42299;35.160;26.100;2023-04-30T01:13:37;8.38;;;5.40;;
56401;SDS011;42299;35.160;26.100;2023-04-30T01:15:07;9.45;;;5.35;;
56401;SDS011;42299;35.160;26.100;2023-04-30T01:16:39;7.30;;;5.50;;
56401;SDS011;42299;35.160;26.100;2023-04-30T01:18:06;11.57;;;5.40;;
56401;SDS011;42299;35.160;26.100;2023-04-30T01:19:35;10.05;;;5.57;;
56401;SDS011;42299;35.160;26.100;2023-04-30T01:21:03;9.05;;;5.43;;
56401;SDS011;42299;35.160;26.100;2023-04-30T01:22:34;7.28;;;5.50;;
56401;SDS011;42299;35.160;26.100;2023-04-30T01:24:08;7.32;;;5.55;;
56401;SDS011;42299;35.160;26.100;2023-04-30T01:25:52;8.10;;;5.40;;
56401;SDS011;42299;35.160;26.100;2023-04-30T01:27:31;7.28;;;5.65;;
56401;SDS011;42299;35.160;26.100;2023-04-30T01:29:24;8.93;;;5.90;;
56401;SDS011;42299;35.160;26.100;2023-04-30T01:30:47;11.27;;;6.15;;
56401;SDS011;42299;35.160;26.100;2023-04-30T01:32:10;10.38;;;6.47;;
56401;SDS011;42299;35.160;26.100;2023-04-30T01:33:31;6.97;;;5.78;;
56401;SDS011;42299;35.160;26.100;2023-04-30T01:34:53;10.57;;;7.07;;
56401;SDS011;42299;35.160;26.100;2023-04-30T01:36:27;10.13;;;6.45;;
56401;SDS011;42299;35.160;26.100;2023-04-30T01:37:58;10.80;;;7.03;;
56401;SDS011;42299;35.160;26.100;2023-04-30T01:39:38;8.65;;;6.45;;
56401;SDS011;42299;35.160;26.100;2023-04-30T01:41:19;10.13;;;6.63;;
56401;SDS011;42299;35.160;26.100;2023-04-30T01:42:51;10.43;;;6.35;;
56401;SDS011;42299;35.160;26.100;2023-04-30T01:44:27;10.93;;;6.80;;
56401;SDS011;42299;35.160;26.100;2023-04-30T01:46:03;9.85;;;6.25;;
56401;SDS011;42299;35.160;26.100;2023-04-30T01:47:35;11.50;;;6.28;;
56401;SDS011;42299;35.160;26.100;2023-04-30T01:49:02;7.65;;;6.22;;
56401;SDS011;42299;35.160;26.100;2023-04-30T01:50:36;9.13;;;5.82;;
56401;SDS011;42299;35.160;26.100;2023-04-30T01:52:06;9.13;;;5.90;;
56401;SDS011;42299;35.160;26.100;2023-04-30T01:53:32;11.05;;;5.88;;
56401;SDS011;42299;35.160;26.100;2023-04-30T01:55:03;10.48;;;6.22;;
56401;SDS011;42299;35.160;26.100;2023-04-30T01:56:30;7.60;;;5.75;;
56401;SDS011;42299;35.160;26.100;2023-04-30T01:57:57;10.30;;;6.10;;
56401;SDS011;42299;35.160;26.100;2023-04-30T01:59:21;8.43;;;5.55;;
56401;SDS011;42299;35.160;26.100;2023-04-30T02:00:44;10.77;;;5.53;;
56401;SDS011;42299;35.160;26.100;2023-04-30T02:02:07;8.20;;;5.68;;
56401;SDS011;42299;35.160;26.100;2023-04-30T02:03:28;11.23;;;6.30;;
56401;SDS011;42299;35.160;26.100;2023-04-30T02:04:51;8.77;;;5.38;;
56401;SDS011;42299;35.160;26.100;2023-04-30T02:06:13;8.10;;;5.05;;
56401;SDS011;42299;35.160;26.100;2023-04-30T02:07:36;9.80;;;5.25;;
56401;SDS011;42299;35.160;26.100;2023-04-30T02:09:01;8.38;;;5.10;;
56401;SDS011;42299;35.160;26.100;2023-04-30T02:10:26;10.13;;;6.03;;
56401;SDS011;42299;35.160;26.100;2023-04-30T02:11:49;10.23;;;5.35;;
56401;SDS011;42299;35.160;26.100;2023-04-30T02:13:12;8.48;;;5.78;;
56401;SDS011;42299;35.160;26.100;2023-04-30T02:14:34;10.82;;;5.90;;
56401;SDS011;42299;35.160;26.100;2023-04-30T02:15:58;8.82;;;5.50;;
56401;SDS011;42299;35.160;26.100;2023-04-30T02:17:20;8.10;;;5.80;;
56401;SDS011;42299;35.160;26.100;2023-04-30T02:18:42;11.35;;;6.13;;
56401;SDS011;42299;35.160;26.100;2023-04-30T02:20:05;6.63;;;5.47;;
56401;SDS011;42299;35.160;26.100;2023-04-30T02:21:28;10.80;;;5.80;;
56401;SDS011;42299;35.160;26.100;2023-04-30T02:22:51;7.18;;;5.45;;
56401;SDS011;42299;35.160;26.100;2023-04-30T02:24:13;11.23;;;6.53;;
56401;SDS011;42299;35.160;26.100;2023-04-30T02:25:35;13.20;;;5.93;;
56401;SDS011;42299;35.160;26.100;2023-04-30T02:26:58;7.53;;;5.93;;
56401;SDS011;42299;35.160;26.100;2023-04-30T02:28:20;10.20;;;6.13;;
56401;SDS011;42299;35.160;26.100;2023-04-30T02:29:42;9.80;;;6.80;;
56401;SDS011;42299;35.160;26.100;2023-04-30T02:31:05;8.88;;;6.88;;
56401;SDS011;42299;35.160;26.100;2023-04-30T02:32:27;12.60;;;7.28;;
56401;SDS011;42299;35.160;26.100;2023-04-30T02:33:49;8.20;;;6.28;;
56401;SDS011;42299;35.160;26.100;2023-04-30T02:35:11;9.13;;;6.15;;
56401;SDS011;42299;35.160;26.100;2023-04-30T02:36:34;9.80;;;6.10;;
56401;SDS011;42299;35.160;26.100;2023-04-30T02:37:56;10.40;;;5.85;;
56401;SDS011;42299;35.160;26.100;2023-04-30T02:39:17;9.10;;;6.18;;
56401;SDS011;42299;35.160;26.100;2023-04-30T02:40:40;10.18;;;5.82;;
56401;SDS011;42299;35.160;26.100;2023-04-30T02:42:03;8.75;;;6.32;;
56401;SDS011;42299;35.160;26.100;2023-04-30T02:43:26;10.27;;;6.35;;
56401;SDS011;42299;35.160;26.100;2023-04-30T02:44:48;8.93;;;5.78;;
56401;SDS011;42299;35.160;26.100;2023-04-30T02:46:11;10.73;;;5.53;;
56401;SDS011;42299;35.160;26.100;2023-04-30T02:47:33;11.32;;;5.57;;
56401;SDS011;42299;35.160;26.100;2023-04-30T02:48:56;10.63;;;6.07;;
56401;SDS011;42299;35.160;26.100;2023-04-30T02:50:17;10.23;;;5.65;;
56401;SDS011;42299;35.160;26.100;2023-04-30T02:51:39;11.52;;;6.25;;
56401;SDS011;42299;35.160;26.100;2023-04-30T02:53:01;10.85;;;5.70;;
56401;SDS011;42299;35.160;26.100;2023-04-30T02:54:24;8.77;;;5.20;;
56401;SDS011;42299;35.160;26.100;2023-04-30T02:55:46;9.98;;;5.70;;
56401;SDS011;42299;35.160;26.100;2023-04-30T02:57:08;8.75;;;6.10;;
56401;SDS011;42299;35.160;26.100;2023-04-30T02:58:29;8.70;;;5.82;;
56401;SDS011;42299;35.160;26.100;2023-04-30T02:59:52;7.93;;;5.68;;
56401;SDS011;42299;35.160;26.100;2023-04-30T03:01:16;10.77;;;5.97;;
56401;SDS011;42299;35.160;26.100;2023-04-30T03:02:37;9.43;;;6.00;;
56401;SDS011;42299;35.160;26.100;2023-04-30T03:03:59;11.75;;;6.07;;
56401;SDS011;42299;35.160;26.100;2023-04-30T03:05:23;10.00;;;5.55;;
56401;SDS011;42299;35.160;26.100;2023-04-30T03:06:45;7.47;;;5.88;;
56401;SDS011;42299;35.160;26.100;2023-04-30T03:08:07;8.35;;;6.15;;
56401;SDS011;42299;35.160;26.100;2023-04-30T03:09:30;9.10;;;6.32;;
56401;SDS011;42299;35.160;26.100;2023-04-30T03:10:52;9.85;;;5.72;;
56401;SDS011;42299;35.160;26.100;2023-04-30T03:12:13;11.80;;;6.20;;
56401;SDS011;42299;35.160;26.100;2023-04-30T03:13:36;9.75;;;5.95;;
56401;SDS011;42299;35.160;26.100;2023-04-30T03:14:59;7.95;;;5.38;;
56401;SDS011;42299;35.160;26.100;2023-04-30T03:16:21;10.45;;;6.13;;
56401;SDS011;42299;35.160;26.100;2023-04-30T03:17:44;7.70;;;5.82;;
56401;SDS011;42299;35.160;26.100;2023-04-30T03:19:05;8.60;;;5.22;;
56401;SDS011;42299;35.160;26.100;2023-04-30T03:20:28;9.63;;;6.18;;
56401;SDS011;42299;35.160;26.100;2023-04-30T03:21:51;8.43;;;6.03;;
56401;SDS011;42299;35.160;26.100;2023-04-30T03:23:12;10.77;;;6.22;;
56401;SDS011;42299;35.160;26.100;2023-04-30T03:24:34;9.95;;;5.85;;
56401;SDS011;42299;35.160;26.100;2023-04-30T03:25:56;7.38;;;5.60;;
56401;SDS011;42299;35.160;26.100;2023-04-30T03:27:19;8.20;;;5.25;;
56401;SDS011;42299;35.160;26.100;2023-04-30T03:28:40;10.25;;;6.40;;
56401;SDS011;42299;35.160;26.100;2023-04-30T03:30:03;7.28;;;5.50;;
56401;SDS011;42299;35.160;26.100;2023-04-30T03:31:28;9.50;;;5.53;;
56401;SDS011;42299;35.160;26.100;2023-04-30T03:32:50;9.18;;;6.07;;
56401;SDS011;42299;35.160;26.100;2023-04-30T03:34:12;11.63;;;5.97;;
56401;SDS011;42299;35.160;26.100;2023-04-30T03:35:34;11.18;;;6.18;;
56401;SDS011;42299;35.160;26.100;2023-04-30T03:36:56;9.15;;;5.43;;
56401;SDS011;42299;35.160;26.100;2023-04-30T03:38:20;8.02;;;5.85;;
56401;SDS011;42299;35.160;26.100;2023-04-30T03:39:41;12.15;;;6.43;;
56401;SDS011;42299;35.160;26.100;2023-04-30T03:41:04;9.27;;;6.15;;
56401;SDS011;42299;35.160;26.100;2023-04-30T03:42:26;9.00;;;6.05;;
56401;SDS011;42299;35.160;26.100;2023-04-30T03:43:47;9.93;;;5.65;;
56401;SDS011;42299;35.160;26.100;2023-04-30T03:45:10;9.50;;;5.50;;
56401;SDS011;42299;35.160;26.100;2023-04-30T03:46:33;8.75;;;5.20;;
56401;SDS011;42299;35.160;26.100;2023-04-30T03:47:55;7.82;;;5.60;;
56401;SDS011;42299;35.160;26.100;2023-04-30T03:49:17;10.75;;;5.45;;
56401;SDS011;42299;35.160;26.100;2023-04-30T03:50:39;7.70;;;4.72;;
56401;SDS011;42299;35.160;26.100;2023-04-30T03:52:01;7.38;;;4.78;;
56401;SDS011;42299;35.160;26.100;2023-04-30T03:53:24;8.32;;;5.18;;
56401;SDS011;42299;35.160;26.100;2023-04-30T03:54:46;8.88;;;4.70;;
56401;SDS011;42299;35.160;26.100;2023-04-30T03:57:31;7.95;;;4.70;;
56401;SDS011;42299;35.160;26.100;2023-04-30T03:58:53;6.63;;;4.75;;
56401;SDS011;42299;35.160;26.100;2023-04-30T04:00:15;10.65;;;4.80;;
56401;SDS011;42299;35.160;26.100;2023-04-30T04:01:43;7.97;;;4.50;;
56401;SDS011;42299;35.160;26.100;2023-04-30T04:03:06;6.93;;;3.85;;
56401;SDS011;42299;35.160;26.100;2023-04-30T04:04:27;7.55;;;4.30;;
56401;SDS011;42299;35.160;26.100;2023-04-30T04:05:50;6.78;;;3.92;;
56401;SDS011;42299;35.160;26.100;2023-04-30T04:07:11;8.00;;;3.72;;
56401;SDS011;42299;35.160;26.100;2023-04-30T04:08:34;6.97;;;3.78;;
56401;SDS011;42299;35.160;26.100;2023-04-30T04:09:56;6.50;;;3.90;;
56401;SDS011;42299;35.160;26.100;2023-04-30T04:11:19;6.63;;;3.90;;
56401;SDS011;42299;35.160;26.100;2023-04-30T04:12:40;7.35;;;3.72;;
56401;SDS011;42299;35.160;26.100;2023-04-30T04:14:02;7.15;;;3.90;;
56401;SDS011;42299;35.160;26.100;2023-04-30T04:15:24;6.38;;;3.80;;
56401;SDS011;42299;35.160;26.100;2023-04-30T04:16:48;8.02;;;4.45;;
56401;SDS011;42299;35.160;26.100;2023-04-30T04:18:10;5.50;;;3.90;;
56401;SDS011;42299;35.160;26.100;2023-04-30T04:19:32;7.30;;;3.78;;
56401;SDS011;42299;35.160;26.100;2023-04-30T04:20:54;6.72;;;3.72;;
56401;SDS011;42299;35.160;26.100;2023-04-30T04:22:16;6.57;;;3.70;;
56401;SDS011;42299;35.160;26.100;2023-04-30T04:23:39;7.40;;;3.60;;
56401;SDS011;42299;35.160;26.100;2023-04-30T04:25:02;7.00;;;3.70;;
56401;SDS011;42299;35.160;26.100;2023-04-30T04:26:26;6.43;;;3.17;;
56401;SDS011;42299;35.160;26.100;2023-04-30T04:27:49;6.68;;;3.20;;
56401;SDS011;42299;35.160;26.100;2023-04-30T04:29:11;6.68;;;3.30;;
56401;SDS011;42299;35.160;26.100;2023-04-30T04:30:35;5.70;;;3.13;;
56401;SDS011;42299;35.160;26.100;2023-04-30T04:31:59;5.72;;;2.95;;
56401;SDS011;42299;35.160;26.100;2023-04-30T04:33:23;5.95;;;3.20;;
56401;SDS011;42299;35.160;26.100;2023-04-30T04:34:46;6.05;;;3.55;;
56401;SDS011;42299;35.160;26.100;2023-04-30T04:36:08;5.47;;;3.10;;
56401;SDS011;42299;35.160;26.100;2023-04-30T04:37:31;6.05;;;3.22;;
56401;SDS011;42299;35.160;26.100;2023-04-30T04:38:53;6.72;;;3.47;;
56401;SDS011;42299;35.160;26.100;2023-04-30T04:40:17;4.82;;;2.53;;
56401;SDS011;42299;35.160;26.100;2023-04-30T04:41:39;4.93;;;2.92;;
56401;SDS011;42299;35.160;26.100;2023-04-30T04:43:01;6.88;;;2.72;;
56401;SDS011;42299;35.160;26.100;2023-04-30T04:44:25;7.55;;;2.95;;
56401;SDS011;42299;35.160;26.100;2023-04-30T04:45:49;5.85;;;2.80;;
56401;SDS011;42299;35.160;26.100;2023-04-30T04:47:13;5.47;;;2.65;;
56401;SDS011;42299;35.160;26.100;2023-04-30T04:48:36;5.22;;;2.90;;
56401;SDS011;42299;35.160;26.100;2023-04-30T04:49:58;4.32;;;3.00;;
56401;SDS011;42299;35.160;26.100;2023-04-30T04:51:20;5.05;;;2.92;;
56401;SDS011;42299;35.160;26.100;2023-04-30T04:52:42;5.97;;;3.25;;
56401;SDS011;42299;35.160;26.100;2023-04-30T04:54:05;5.93;;;3.00;;
56401;SDS011;42299;35.160;26.100;2023-04-30T04:55:26;7.30;;;3.30;;
56401;SDS011;42299;35.160;26.100;2023-04-30T04:56:49;6.30;;;3.00;;
56401;SDS011;42299;35.160;26.100;2023-04-30T04:58:11;4.30;;;2.72;;
56401;SDS011;42299;35.160;26.100;2023-04-30T04:59:33;5.80;;;2.78;;
56401;SDS011;42299;35.160;26.100;2023-04-30T05:00:54;5.10;;;2.72;;
56401;SDS011;42299;35.160;26.100;2023-04-30T05:02:18;5.35;;;2.58;;
56401;SDS011;42299;35.160;26.100;2023-04-30T05:03:40;6.13;;;2.60;;
56401;SDS011;42299;35.160;26.100;2023-04-30T05:05:03;6.97;;;2.50;;
56401;SDS011;42299;35.160;26.100;2023-04-30T05:06:24;6.25;;;2.85;;
56401;SDS011;42299;35.160;26.100;2023-04-30T05:07:51;6.03;;;2.78;;
56401;SDS011;42299;35.160;26.100;2023-04-30T05:09:14;5.40;;;2.67;;
56401;SDS011;42299;35.160;26.100;2023-04-30T05:10:37;5.95;;;2.50;;
56401;SDS011;42299;35.160;26.100;2023-04-30T05:11:59;7.00;;;3.25;;
56401;SDS011;42299;35.160;26.100;2023-04-30T05:13:21;4.03;;;2.35;;
56401;SDS011;42299;35.160;26.100;2023-04-30T05:14:44;5.82;;;2.70;;
56401;SDS011;42299;35.160;26.100;2023-04-30T05:16:07;4.97;;;2.58;;
56401;SDS011;42299;35.160;26.100;2023-04-30T05:17:30;6.80;;;2.80;;
56401;SDS011;42299;35.160;26.100;2023-04-30T05:18:53;5.32;;;3.13;;
56401;SDS011;42299;35.160;26.100;2023-04-30T05:20:15;4.20;;;2.80;;
56401;SDS011;42299;35.160;26.100;2023-04-30T05:21:37;5.60;;;2.65;;
56401;SDS011;42299;35.160;26.100;2023-04-30T05:23:00;6.15;;;2.85;;
56401;SDS011;42299;35.160;26.100;2023-04-30T05:24:22;8.77;;;2.85;;
56401;SDS011;42299;35.160;26.100;2023-04-30T05:25:45;6.57;;;2.70;;
56401;SDS011;42299;35.160;26.100;2023-04-30T05:27:11;7.55;;;2.47;;
56401;SDS011;42299;35.160;26.100;2023-04-30T05:28:34;7.30;;;2.70;;
56401;SDS011;42299;35.160;26.100;2023-04-30T05:29:56;5.97;;;2.92;;
56401;SDS011;42299;35.160;26.100;2023-04-30T05:31:18;6.03;;;2.83;;
56401;SDS011;42299;35.160;26.100;2023-04-30T05:32:41;5.30;;;2.33;;
56401;SDS011;42299;35.160;26.100;2023-04-30T05:34:09;5.78;;;2.83;;
56401;SDS011;42299;35.160;26.100;2023-04-30T05:35:32;5.70;;;2.53;;
56401;SDS011;42299;35.160;26.100;2023-04-30T05:36:55;3.50;;;2.00;;
56401;SDS011;42299;35.160;26.100;2023-04-30T05:38:17;4.75;;;2.45;;
56401;SDS011;42299;35.160;26.100;2023-04-30T05:39:39;4.22;;;2.33;;
56401;SDS011;42299;35.160;26.100;2023-04-30T05:41:02;7.10;;;2.45;;
56401;SDS011;42299;35.160;26.100;2023-04-30T05:42:23;7.55;;;2.78;;
56401;SDS011;42299;35.160;26.100;2023-04-30T05:43:46;6.97;;;2.85;;
56401;SDS011;42299;35.160;26.100;2023-04-30T05:45:07;5.07;;;2.30;;
56401;SDS011;42299;35.160;26.100;2023-04-30T05:46:30;6.22;;;2.28;;
56401;SDS011;42299;35.160;26.100;2023-04-30T05:47:54;4.22;;;2.10;;
56401;SDS011;42299;35.160;26.100;2023-04-30T05:49:15;7.28;;;2.28;;
56401;SDS011;42299;35.160;26.100;2023-04-30T05:50:37;5.40;;;2.35;;
56401;SDS011;42299;35.160;26.100;2023-04-30T05:52:00;10.05;;;2.42;;
56401;SDS011;42299;35.160;26.100;2023-04-30T05:53:23;5.65;;;2.53;;
56401;SDS011;42299;35.160;26.100;2023-04-30T05:54:45;6.63;;;2.28;;
56401;SDS011;42299;35.160;26.100;2023-04-30T05:56:08;7.13;;;2.40;;
56401;SDS011;42299;35.160;26.100;2023-04-30T05:57:31;5.75;;;2.35;;
56401;SDS011;42299;35.160;26.100;2023-04-30T05:58:54;4.97;;;2.00;;
56401;SDS011;42299;35.160;26.100;2023-04-30T06:00:16;4.82;;;2.10;;
56401;SDS011;42299;35.160;26.100;2023-04-30T06:01:39;6.72;;;2.33;;
56401;SDS011;42299;35.160;26.100;2023-04-30T06:03:04;5.75;;;2.28;;
56401;SDS011;42299;35.160;26.100;2023-04-30T06:04:27;6.47;;;2.35;;
56401;SDS011;42299;35.160;26.100;2023-04-30T06:05:48;6.88;;;2.30;;
56401;SDS011;42299;35.160;26.100;2023-04-30T06:07:10;4.20;;;2.05;;
56401;SDS011;42299;35.160;26.100;2023-04-30T06:08:33;4.30;;;2.35;;
56401;SDS011;42299;35.160;26.100;2023-04-30T06:09:54;5.65;;;2.63;;
56401;SDS011;42299;35.160;26.100;2023-04-30T06:11:17;4.47;;;2.80;;
56401;SDS011;42299;35.160;26.100;2023-04-30T06:12:39;6.03;;;2.33;;
56401;SDS011;42299;35.160;26.100;2023-04-30T06:14:02;6.30;;;2.42;;
56401;SDS011;42299;35.160;26.100;2023-04-30T06:15:24;3.92;;;2.03;;
56401;SDS011;42299;35.160;26.100;2023-04-30T06:16:47;6.20;;;2.58;;
56401;SDS011;42299;35.160;26.100;2023-04-30T06:18:11;6.10;;;2.10;;
56401;SDS011;42299;35.160;26.100;2023-04-30T06:19:34;5.43;;;1.85;;
56401;SDS011;42299;35.160;26.100;2023-04-30T06:20:58;4.55;;;1.90;;
56401;SDS011;42299;35.160;26.100;2023-04-30T06:22:20;5.45;;;2.28;;
56401;SDS011;42299;35.160;26.100;2023-04-30T06:23:42;4.60;;;2.00;;
56401;SDS011;42299;35.160;26.100;2023-04-30T06:25:05;4.78;;;1.95;;
56401;SDS011;42299;35.160;26.100;2023-04-30T06:26:28;4.97;;;2.30;;
56401;SDS011;42299;35.160;26.100;2023-04-30T06:27:51;4.93;;;2.30;;
56401;SDS011;42299;35.160;26.100;2023-04-30T06:29:13;4.78;;;2.15;;
56401;SDS011;42299;35.160;26.100;2023-04-30T06:30:35;4.40;;;2.10;;
56401;SDS011;42299;35.160;26.100;2023-04-30T06:31:56;5.63;;;2.10;;
56401;SDS011;42299;35.160;26.100;2023-04-30T06:33:20;4.40;;;1.90;;
56401;SDS011;42299;35.160;26.100;2023-04-30T06:34:42;4.00;;;2.08;;
56401;SDS011;42299;35.160;26.100;2023-04-30T06:36:05;4.22;;;2.15;;
56401;SDS011;42299;35.160;26.100;2023-04-30T06:37:27;3.40;;;1.77;;
56401;SDS011;42299;35.160;26.100;2023-04-30T06:38:55;3.42;;;1.80;;
56401;SDS011;42299;35.160;26.100;2023-04-30T06:40:17;4.60;;;1.95;;
56401;SDS011;42299;35.160;26.100;2023-04-30T06:41:39;5.63;;;2.00;;
56401;SDS011;42299;35.160;26.100;2023-04-30T06:43:03;3.42;;;1.60;;
56401;SDS011;42299;35.160;26.100;2023-04-30T06:44:26;4.20;;;2.30;;
56401;SDS011;42299;35.160;26.100;2023-04-30T06:45:48;3.25;;;1.70;;
56401;SDS011;42299;35.160;26.100;2023-04-30T06:47:11;4.53;;;2.15;;
56401;SDS011;42299;35.160;26.100;2023-04-30T06:48:35;4.13;;;2.00;;
56401;SDS011;42299;35.160;26.100;2023-04-30T06:49:57;5.32;;;2.10;;
56401;SDS011;42299;35.160;26.100;2023-04-30T06:51:19;4.72;;;1.90;;
56401;SDS011;42299;35.160;26.100;2023-04-30T06:52:42;6.43;;;1.90;;
56401;SDS011;42299;35.160;26.100;2023-04-30T06:54:04;5.38;;;1.77;;
56401;SDS011;42299;35.160;26.100;2023-04-30T06:55:27;7.38;;;1.92;;
56401;SDS011;42299;35.160;26.100;2023-04-30T06:56:49;4.63;;;2.05;;
56401;SDS011;42299;35.160;26.100;2023-04-30T06:58:11;5.90;;;2.05;;
56401;SDS011;42299;35.160;26.100;2023-04-30T06:59:33;6.18;;;2.10;;
56401;SDS011;42299;35.160;26.100;2023-04-30T07:00:55;4.57;;;1.95;;
56401;SDS011;42299;35.160;26.100;2023-04-30T07:02:18;4.38;;;1.77;;
56401;SDS011;42299;35.160;26.100;2023-04-30T07:03:42;5.13;;;2.22;;
56401;SDS011;42299;35.160;26.100;2023-04-30T07:05:04;6.43;;;1.67;;
56401;SDS011;42299;35.160;26.100;2023-04-30T07:06:27;8.15;;;2.03;;
56401;SDS011;42299;35.160;26.100;2023-04-30T07:07:49;5.70;;;2.00;;
56401;SDS011;42299;35.160;26.100;2023-04-30T07:09:12;6.60;;;1.95;;
56401;SDS011;42299;35.160;26.100;2023-04-30T07:10:34;6.57;;;1.80;;
56401;SDS011;42299;35.160;26.100;2023-04-30T07:11:57;7.57;;;1.90;;
56401;SDS011;42299;35.160;26.100;2023-04-30T07:13:22;4.30;;;1.80;;
56401;SDS011;42299;35.160;26.100;2023-04-30T07:14:44;4.75;;;2.05;;
56401;SDS011;42299;35.160;26.100;2023-04-30T07:16:06;5.10;;;2.13;;
56401;SDS011;42299;35.160;26.100;2023-04-30T07:17:30;5.88;;;1.90;;
56401;SDS011;42299;35.160;26.100;2023-04-30T07:18:53;5.20;;;2.05;;
56401;SDS011;42299;35.160;26.100;2023-04-30T07:20:16;5.18;;;1.92;;
56401;SDS011;42299;35.160;26.100;2023-04-30T07:21:38;3.90;;;2.13;;
56401;SDS011;42299;35.160;26.100;2023-04-30T07:23:00;4.35;;;1.67;;
56401;SDS011;42299;35.160;26.100;2023-04-30T07:24:22;3.95;;;2.00;;
56401;SDS011;42299;35.160;26.100;2023-04-30T07:25:44;2.88;;;1.70;;
56401;SDS011;42299;35.160;26.100;2023-04-30T07:27:06;4.50;;;2.05;;
56401;SDS011;42299;35.160;26.100;2023-04-30T07:28:29;4.53;;;1.77;;
56401;SDS011;42299;35.160;26.100;2023-04-30T07:29:51;4.43;;;1.77;;
56401;SDS011;42299;35.160;26.100;2023-04-30T07:31:12;3.13;;;1.70;;
56401;SDS011;42299;35.160;26.100;2023-04-30T07:32:36;5.40;;;2.00;;
56401;SDS011;42299;35.160;26.100;2023-04-30T07:34:01;3.97;;;2.15;;
56401;SDS011;42299;35.160;26.100;2023-04-30T07:35:24;5.45;;;1.77;;
56401;SDS011;42299;35.160;26.100;2023-04-30T07:36:46;4.30;;;1.75;;
56401;SDS011;42299;35.160;26.100;2023-04-30T07:38:09;4.25;;;1.63;;
56401;SDS011;42299;35.160;26.100;2023-04-30T07:39:31;3.28;;;1.90;;
56401;SDS011;42299;35.160;26.100;2023-04-30T07:40:53;5.60;;;2.00;;
56401;SDS011;42299;35.160;26.100;2023-04-30T07:42:16;4.03;;;1.88;;
56401;SDS011;42299;35.160;26.100;2023-04-30T07:43:37;6.15;;;1.80;;
56401;SDS011;42299;35.160;26.100;2023-04-30T07:44:59;4.30;;;1.80;;
56401;SDS011;42299;35.160;26.100;2023-04-30T07:46:23;2.75;;;1.80;;
56401;SDS011;42299;35.160;26.100;2023-04-30T07:47:46;5.07;;;2.08;;
56401;SDS011;42299;35.160;26.100;2023-04-30T07:49:09;4.78;;;2.25;;
56401;SDS011;42299;35.160;26.100;2023-04-30T07:50:32;5.05;;;1.83;;
56401;SDS011;42299;35.160;26.100;2023-04-30T07:51:54;5.47;;;2.28;;
56401;SDS011;42299;35.160;26.100;2023-04-30T07:53:17;5.03;;;1.63;;
56401;SDS011;42299;35.160;26.100;2023-04-30T07:54:39;5.88;;;2.42;;
56401;SDS011;42299;35.160;26.100;2023-04-30T07:56:02;6.55;;;1.80;;
56401;SDS011;42299;35.160;26.100;2023-04-30T07:57:24;3.97;;;1.60;;
56401;SDS011;42299;35.160;26.100;2023-04-30T07:58:47;3.95;;;2.00;;
56401;SDS011;42299;35.160;26.100;2023-04-30T08:00:09;7.85;;;2.00;;
56401;SDS011;42299;35.160;26.100;2023-04-30T08:01:32;3.90;;;1.80;;
56401;SDS011;42299;35.160;26.100;2023-04-30T08:02:55;3.03;;;1.60;;
56401;SDS011;42299;35.160;26.100;2023-04-30T08:04:19;2.35;;;1.55;;
56401;SDS011;42299;35.160;26.100;2023-04-30T08:05:41;4.93;;;1.80;;
56401;SDS011;42299;35.160;26.100;2023-04-30T08:07:03;3.92;;;1.92;;
56401;SDS011;42299;35.160;26.100;2023-04-30T08:08:26;3.25;;;2.00;;
56401;SDS011;42299;35.160;26.100;2023-04-30T08:09:49;5.28;;;2.03;;
56401;SDS011;42299;35.160;26.100;2023-04-30T08:11:11;5.93;;;1.95;;
56401;SDS011;42299;35.160;26.100;2023-04-30T08:13:57;5.07;;;1.95;;
56401;SDS011;42299;35.160;26.100;2023-04-30T08:15:19;5.55;;;1.83;;
56401;SDS011;42299;35.160;26.100;2023-04-30T08:16:41;4.55;;;2.00;;